sensor_id;sensor_type;location;lat;lon;timestamp;P1;durP1;ratioP1;P2;durP2;ratioP2
78686;SDS011;68002;52.310;6.990;2023-03-09T00:00:00;17.63;;;8.13;;
78686;SDS011;68002;52.310;6.990;2023-03-09T00:02:25;19.97;;;8.83;;
78686;SDS011;68002;52.310;6.990;2023-03-09T00:04:51;20.43;;;8.93;;
78686;SDS011;68002;52.310;6.990;2023-03-09T00:07:16;19.33;;;9.53;;
78686;SDS011;68002;52.310;6.990;2023-03-09T00:09:41;21.47;;;10.93;;
78686;SDS011;68002;52.310;6.990;2023-03-09T00:12:06;22.10;;;8.80;;
78686;SDS011;68002;52.310;6.990;2023-03-09T00:14:32;17.40;;;8.90;;
78686;SDS011;68002;52.310;6.990;2023-03-09T00:16:57;20.53;;;8.30;;
78686;SDS011;68002;52.310;6.990;2023-03-09T00:19:22;22.23;;;10.30;;
78686;SDS011;68002;52.310;6.990;2023-03-09T00:21:47;22.80;;;9.73;;
78686;SDS011;68002;52.310;6.990;2023-03-09T00:24:14;21.70;;;8.83;;
78686;SDS011;68002;52.310;6.990;2023-03-09T00:26:42;24.08;;;11.05;;
78686;SDS011;68002;52.310;6.990;2023-03-09T00:29:11;25.90;;;11.30;;
78686;SDS011;68002;52.310;6.990;2023-03-09T00:31:37;27.73;;;11.30;;
78686;SDS011;68002;52.310;6.990;2023-03-09T00:34:03;28.52;;;12.27;;
78686;SDS011;68002;52.310;6.990;2023-03-09T00:36:29;22.92;;;9.45;;
78686;SDS011;68002;52.310;6.990;2023-03-09T00:38:55;24.00;;;10.43;;
78686;SDS011;68002;52.310;6.990;2023-03-09T00:41:21;27.05;;;10.25;;
78686;SDS011;68002;52.310;6.990;2023-03-09T00:43:47;27.63;;;12.63;;
78686;SDS011;68002;52.310;6.990;2023-03-09T00:46:13;18.67;;;8.35;;
78686;SDS011;68002;52.310;6.990;2023-03-09T00:48:39;27.20;;;11.15;;
78686;SDS011;68002;52.310;6.990;2023-03-09T00:51:04;22.92;;;9.25;;
78686;SDS011;68002;52.310;6.990;2023-03-09T00:53:30;24.60;;;10.77;;
78686;SDS011;68002;52.310;6.990;2023-03-09T00:55:55;24.80;;;10.00;;
78686;SDS011;68002;52.310;6.990;2023-03-09T00:58:20;23.50;;;9.33;;
78686;SDS011;68002;52.310;6.990;2023-03-09T01:00:46;22.77;;;9.67;;
78686;SDS011;68002;52.310;6.990;2023-03-09T01:03:11;20.37;;;9.03;;
78686;SDS011;68002;52.310;6.990;2023-03-09T01:05:37;21.80;;;9.80;;
78686;SDS011;68002;52.310;6.990;2023-03-09T01:08:02;20.98;;;9.90;;
78686;SDS011;68002;52.310;6.990;2023-03-09T01:10:28;19.73;;;8.68;;
78686;SDS011;68002;52.310;6.990;2023-03-09T01:12:53;17.97;;;8.10;;
78686;SDS011;68002;52.310;6.990;2023-03-09T01:15:18;17.80;;;7.10;;
78686;SDS011;68002;52.310;6.990;2023-03-09T01:17:43;15.03;;;6.80;;
78686;SDS011;68002;52.310;6.990;2023-03-09T01:20:09;18.37;;;8.20;;
78686;SDS011;68002;52.310;6.990;2023-03-09T01:22:34;23.13;;;10.65;;
78686;SDS011;68002;52.310;6.990;2023-03-09T01:25:00;21.13;;;8.67;;
78686;SDS011;68002;52.310;6.990;2023-03-09T01:27:25;17.77;;;7.17;;
78686;SDS011;68002;52.310;6.990;2023-03-09T01:29:50;17.77;;;8.33;;
78686;SDS011;68002;52.310;6.990;2023-03-09T01:32:15;17.83;;;7.47;;
78686;SDS011;68002;52.310;6.990;2023-03-09T01:34:40;29.47;;;10.93;;
78686;SDS011;68002;52.310;6.990;2023-03-09T01:37:06;19.23;;;8.67;;
78686;SDS011;68002;52.310;6.990;2023-03-09T01:39:31;25.60;;;10.73;;
78686;SDS011;68002;52.310;6.990;2023-03-09T01:41:56;20.83;;;10.53;;
78686;SDS011;68002;52.310;6.990;2023-03-09T01:44:22;19.30;;;8.80;;
78686;SDS011;68002;52.310;6.990;2023-03-09T01:46:48;21.33;;;9.95;;
78686;SDS011;68002;52.310;6.990;2023-03-09T01:54:14;22.08;;;9.15;;
78686;SDS011;68002;52.310;6.990;2023-03-09T01:56:44;27.17;;;12.50;;
78686;SDS011;68002;52.310;6.990;2023-03-09T01:59:11;19.70;;;9.35;;
78686;SDS011;68002;52.310;6.990;2023-03-09T02:01:37;26.40;;;11.52;;
78686;SDS011;68002;52.310;6.990;2023-03-09T02:04:07;19.58;;;8.77;;
78686;SDS011;68002;52.310;6.990;2023-03-09T02:06:37;24.30;;;10.40;;
78686;SDS011;68002;52.310;6.990;2023-03-09T02:09:08;26.90;;;10.45;;
78686;SDS011;68002;52.310;6.990;2023-03-09T02:11:40;20.50;;;8.80;;
78686;SDS011;68002;52.310;6.990;2023-03-09T02:14:07;24.85;;;8.80;;
78686;SDS011;68002;52.310;6.990;2023-03-09T02:16:33;24.70;;;10.52;;
78686;SDS011;68002;52.310;6.990;2023-03-09T02:18:58;26.80;;;11.67;;
78686;SDS011;68002;52.310;6.990;2023-03-09T02:21:42;20.30;;;8.77;;
78686;SDS011;68002;52.310;6.990;2023-03-09T02:29:26;18.05;;;9.00;;
78686;SDS011;68002;52.310;6.990;2023-03-09T02:31:52;19.48;;;8.15;;
78686;SDS011;68002;52.310;6.990;2023-03-09T02:34:18;17.97;;;7.47;;
78686;SDS011;68002;52.310;6.990;2023-03-09T02:36:43;26.27;;;10.83;;
78686;SDS011;68002;52.310;6.990;2023-03-09T02:39:34;18.37;;;8.00;;
78686;SDS011;68002;52.310;6.990;2023-03-09T02:42:10;20.92;;;8.82;;
78686;SDS011;68002;52.310;6.990;2023-03-09T02:44:35;23.67;;;9.30;;
78686;SDS011;68002;52.310;6.990;2023-03-09T02:47:01;16.90;;;7.38;;
78686;SDS011;68002;52.310;6.990;2023-03-09T02:49:31;21.08;;;10.60;;
78686;SDS011;68002;52.310;6.990;2023-03-09T02:51:56;21.83;;;10.57;;
78686;SDS011;68002;52.310;6.990;2023-03-09T02:54:21;18.23;;;7.97;;
78686;SDS011;68002;52.310;6.990;2023-03-09T02:56:47;19.47;;;9.30;;
78686;SDS011;68002;52.310;6.990;2023-03-09T02:59:12;19.67;;;9.73;;
78686;SDS011;68002;52.310;6.990;2023-03-09T03:01:37;15.67;;;7.07;;
78686;SDS011;68002;52.310;6.990;2023-03-09T03:04:02;16.03;;;7.20;;
78686;SDS011;68002;52.310;6.990;2023-03-09T03:06:27;14.33;;;7.27;;
78686;SDS011;68002;52.310;6.990;2023-03-09T03:08:53;19.60;;;9.33;;
78686;SDS011;68002;52.310;6.990;2023-03-09T03:11:18;15.77;;;8.00;;
78686;SDS011;68002;52.310;6.990;2023-03-09T03:13:43;14.80;;;6.30;;
78686;SDS011;68002;52.310;6.990;2023-03-09T03:16:08;16.37;;;8.03;;
78686;SDS011;68002;52.310;6.990;2023-03-09T03:18:34;16.60;;;6.85;;
78686;SDS011;68002;52.310;6.990;2023-03-09T03:20:59;20.87;;;9.50;;
78686;SDS011;68002;52.310;6.990;2023-03-09T03:23:24;19.40;;;9.57;;
78686;SDS011;68002;52.310;6.990;2023-03-09T03:25:49;21.07;;;9.70;;
78686;SDS011;68002;52.310;6.990;2023-03-09T03:28:15;20.67;;;8.30;;
78686;SDS011;68002;52.310;6.990;2023-03-09T03:30:40;17.55;;;6.72;;
78686;SDS011;68002;52.310;6.990;2023-03-09T03:33:06;17.92;;;8.65;;
78686;SDS011;68002;52.310;6.990;2023-03-09T03:35:31;15.90;;;6.87;;
78686;SDS011;68002;52.310;6.990;2023-03-09T03:37:56;20.10;;;8.80;;
78686;SDS011;68002;52.310;6.990;2023-03-09T03:40:21;19.23;;;8.57;;
78686;SDS011;68002;52.310;6.990;2023-03-09T03:42:46;14.60;;;8.13;;
78686;SDS011;68002;52.310;6.990;2023-03-09T03:45:12;19.67;;;8.23;;
78686;SDS011;68002;52.310;6.990;2023-03-09T03:47:37;19.07;;;8.17;;
78686;SDS011;68002;52.310;6.990;2023-03-09T03:50:02;15.50;;;7.47;;
78686;SDS011;68002;52.310;6.990;2023-03-09T03:52:28;18.35;;;9.48;;
78686;SDS011;68002;52.310;6.990;2023-03-09T03:54:54;18.77;;;8.33;;
78686;SDS011;68002;52.310;6.990;2023-03-09T03:57:19;17.30;;;8.83;;
78686;SDS011;68002;52.310;6.990;2023-03-09T03:59:44;18.70;;;8.43;;
78686;SDS011;68002;52.310;6.990;2023-03-09T04:02:09;19.53;;;8.30;;
78686;SDS011;68002;52.310;6.990;2023-03-09T04:04:35;17.13;;;8.37;;
78686;SDS011;68002;52.310;6.990;2023-03-09T04:07:00;19.40;;;7.67;;
78686;SDS011;68002;52.310;6.990;2023-03-09T04:09:25;20.17;;;8.70;;
78686;SDS011;68002;52.310;6.990;2023-03-09T04:11:50;15.37;;;7.80;;
78686;SDS011;68002;52.310;6.990;2023-03-09T04:14:15;16.27;;;7.07;;
78686;SDS011;68002;52.310;6.990;2023-03-09T04:16:41;22.97;;;8.13;;
78686;SDS011;68002;52.310;6.990;2023-03-09T04:19:06;17.13;;;7.37;;
78686;SDS011;68002;52.310;6.990;2023-03-09T04:21:31;21.67;;;8.93;;
78686;SDS011;68002;52.310;6.990;2023-03-09T04:23:56;20.30;;;8.43;;
78686;SDS011;68002;52.310;6.990;2023-03-09T04:26:22;19.13;;;7.53;;
78686;SDS011;68002;52.310;6.990;2023-03-09T04:28:47;16.97;;;7.60;;
78686;SDS011;68002;52.310;6.990;2023-03-09T04:31:12;22.53;;;10.27;;
78686;SDS011;68002;52.310;6.990;2023-03-09T04:33:37;17.80;;;8.10;;
78686;SDS011;68002;52.310;6.990;2023-03-09T04:36:03;21.73;;;8.87;;
78686;SDS011;68002;52.310;6.990;2023-03-09T04:38:28;17.27;;;9.50;;
78686;SDS011;68002;52.310;6.990;2023-03-09T04:40:53;19.57;;;8.63;;
78686;SDS011;68002;52.310;6.990;2023-03-09T04:43:19;16.53;;;6.33;;
78686;SDS011;68002;52.310;6.990;2023-03-09T04:45:44;22.83;;;10.17;;
78686;SDS011;68002;52.310;6.990;2023-03-09T04:48:09;17.97;;;8.10;;
78686;SDS011;68002;52.310;6.990;2023-03-09T04:50:34;19.93;;;8.63;;
78686;SDS011;68002;52.310;6.990;2023-03-09T04:53:00;16.47;;;7.77;;
78686;SDS011;68002;52.310;6.990;2023-03-09T04:55:25;15.47;;;7.93;;
78686;SDS011;68002;52.310;6.990;2023-03-09T04:57:50;21.23;;;10.47;;
78686;SDS011;68002;52.310;6.990;2023-03-09T05:00:15;18.90;;;8.37;;
78686;SDS011;68002;52.310;6.990;2023-03-09T05:02:41;19.85;;;8.57;;
78686;SDS011;68002;52.310;6.990;2023-03-09T05:05:07;20.00;;;10.00;;
78686;SDS011;68002;52.310;6.990;2023-03-09T05:07:33;17.55;;;8.38;;
78686;SDS011;68002;52.310;6.990;2023-03-09T05:09:58;16.90;;;6.75;;
78686;SDS011;68002;52.310;6.990;2023-03-09T05:12:23;18.60;;;9.37;;
78686;SDS011;68002;52.310;6.990;2023-03-09T05:14:49;15.60;;;6.40;;
78686;SDS011;68002;52.310;6.990;2023-03-09T05:17:14;19.97;;;7.83;;
78686;SDS011;68002;52.310;6.990;2023-03-09T05:19:39;13.17;;;5.70;;
78686;SDS011;68002;52.310;6.990;2023-03-09T05:22:05;15.37;;;7.27;;
78686;SDS011;68002;52.310;6.990;2023-03-09T05:24:31;16.90;;;8.05;;
78686;SDS011;68002;52.310;6.990;2023-03-09T05:26:56;19.23;;;9.05;;
78686;SDS011;68002;52.310;6.990;2023-03-09T05:29:21;15.90;;;6.95;;
78686;SDS011;68002;52.310;6.990;2023-03-09T05:31:47;15.35;;;7.05;;
78686;SDS011;68002;52.310;6.990;2023-03-09T05:34:12;17.63;;;7.83;;
78686;SDS011;68002;52.310;6.990;2023-03-09T05:36:38;16.05;;;7.20;;
78686;SDS011;68002;52.310;6.990;2023-03-09T05:39:03;18.30;;;7.38;;
78686;SDS011;68002;52.310;6.990;2023-03-09T05:41:29;15.98;;;7.10;;
78686;SDS011;68002;52.310;6.990;2023-03-09T05:43:54;12.43;;;4.97;;
78686;SDS011;68002;52.310;6.990;2023-03-09T05:46:19;14.20;;;7.37;;
78686;SDS011;68002;52.310;6.990;2023-03-09T05:48:47;14.07;;;7.97;;
78686;SDS011;68002;52.310;6.990;2023-03-09T05:51:13;11.70;;;5.30;;
78686;SDS011;68002;52.310;6.990;2023-03-09T05:53:38;16.43;;;9.13;;
78686;SDS011;68002;52.310;6.990;2023-03-09T05:56:04;13.43;;;5.45;;
78686;SDS011;68002;52.310;6.990;2023-03-09T05:58:30;15.05;;;6.68;;
78686;SDS011;68002;52.310;6.990;2023-03-09T06:00:56;16.58;;;7.13;;
78686;SDS011;68002;52.310;6.990;2023-03-09T06:03:22;14.83;;;6.77;;
78686;SDS011;68002;52.310;6.990;2023-03-09T06:05:48;16.92;;;6.93;;
78686;SDS011;68002;52.310;6.990;2023-03-09T06:08:13;15.10;;;5.77;;
78686;SDS011;68002;52.310;6.990;2023-03-09T06:10:39;16.63;;;7.80;;
78686;SDS011;68002;52.310;6.990;2023-03-09T06:13:04;15.57;;;7.33;;
78686;SDS011;68002;52.310;6.990;2023-03-09T06:15:30;19.10;;;8.18;;
78686;SDS011;68002;52.310;6.990;2023-03-09T06:17:55;16.67;;;7.57;;
78686;SDS011;68002;52.310;6.990;2023-03-09T06:20:21;17.27;;;7.83;;
78686;SDS011;68002;52.310;6.990;2023-03-09T06:22:46;13.97;;;6.87;;
78686;SDS011;68002;52.310;6.990;2023-03-09T06:25:11;15.47;;;6.33;;
78686;SDS011;68002;52.310;6.990;2023-03-09T06:27:37;15.70;;;7.20;;
78686;SDS011;68002;52.310;6.990;2023-03-09T06:30:02;13.48;;;4.97;;
78686;SDS011;68002;52.310;6.990;2023-03-09T06:32:31;11.27;;;4.93;;
78686;SDS011;68002;52.310;6.990;2023-03-09T06:34:56;17.75;;;8.05;;
78686;SDS011;68002;52.310;6.990;2023-03-09T06:37:22;13.70;;;6.80;;
78686;SDS011;68002;52.310;6.990;2023-03-09T06:39:47;14.80;;;6.63;;
78686;SDS011;68002;52.310;6.990;2023-03-09T06:42:12;15.60;;;7.93;;
78686;SDS011;68002;52.310;6.990;2023-03-09T06:44:37;14.97;;;6.43;;
78686;SDS011;68002;52.310;6.990;2023-03-09T06:47:02;18.77;;;8.47;;
78686;SDS011;68002;52.310;6.990;2023-03-09T06:49:28;17.67;;;7.60;;
78686;SDS011;68002;52.310;6.990;2023-03-09T06:51:53;12.80;;;6.23;;
78686;SDS011;68002;52.310;6.990;2023-03-09T06:54:18;14.70;;;6.10;;
78686;SDS011;68002;52.310;6.990;2023-03-09T06:56:43;12.20;;;6.43;;
78686;SDS011;68002;52.310;6.990;2023-03-09T06:59:08;13.80;;;6.10;;
78686;SDS011;68002;52.310;6.990;2023-03-09T07:01:34;14.93;;;6.30;;
78686;SDS011;68002;52.310;6.990;2023-03-09T07:03:59;11.67;;;5.33;;
78686;SDS011;68002;52.310;6.990;2023-03-09T07:06:25;10.77;;;5.57;;
78686;SDS011;68002;52.310;6.990;2023-03-09T07:08:50;13.50;;;6.73;;
78686;SDS011;68002;52.310;6.990;2023-03-09T07:11:15;12.27;;;7.03;;
78686;SDS011;68002;52.310;6.990;2023-03-09T07:13:40;11.53;;;5.67;;
78686;SDS011;68002;52.310;6.990;2023-03-09T07:16:06;13.60;;;6.07;;
78686;SDS011;68002;52.310;6.990;2023-03-09T07:18:31;16.73;;;7.93;;
78686;SDS011;68002;52.310;6.990;2023-03-09T07:20:58;16.90;;;7.63;;
78686;SDS011;68002;52.310;6.990;2023-03-09T07:23:24;12.98;;;5.72;;
78686;SDS011;68002;52.310;6.990;2023-03-09T07:25:49;13.03;;;6.53;;
78686;SDS011;68002;52.310;6.990;2023-03-09T07:28:14;13.93;;;7.00;;
78686;SDS011;68002;52.310;6.990;2023-03-09T07:30:39;13.37;;;6.13;;
78686;SDS011;68002;52.310;6.990;2023-03-09T07:33:05;11.77;;;5.83;;
78686;SDS011;68002;52.310;6.990;2023-03-09T07:35:30;13.45;;;6.72;;
78686;SDS011;68002;52.310;6.990;2023-03-09T07:37:55;12.20;;;6.00;;
78686;SDS011;68002;52.310;6.990;2023-03-09T07:40:20;11.37;;;5.50;;
78686;SDS011;68002;52.310;6.990;2023-03-09T07:42:49;14.90;;;6.93;;
78686;SDS011;68002;52.310;6.990;2023-03-09T07:45:15;10.10;;;5.30;;
78686;SDS011;68002;52.310;6.990;2023-03-09T07:47:40;11.40;;;5.65;;
78686;SDS011;68002;52.310;6.990;2023-03-09T07:50:07;11.45;;;5.63;;
78686;SDS011;68002;52.310;6.990;2023-03-09T07:52:32;13.32;;;6.95;;
78686;SDS011;68002;52.310;6.990;2023-03-09T07:54:58;16.57;;;7.27;;
78686;SDS011;68002;52.310;6.990;2023-03-09T07:57:23;12.73;;;6.35;;
78686;SDS011;68002;52.310;6.990;2023-03-09T07:59:51;12.80;;;6.33;;
78686;SDS011;68002;52.310;6.990;2023-03-09T08:02:18;13.88;;;6.53;;
78686;SDS011;68002;52.310;6.990;2023-03-09T08:04:43;13.77;;;6.83;;
78686;SDS011;68002;52.310;6.990;2023-03-09T08:07:08;11.63;;;6.23;;
78686;SDS011;68002;52.310;6.990;2023-03-09T08:09:33;12.17;;;6.00;;
78686;SDS011;68002;52.310;6.990;2023-03-09T08:11:59;13.40;;;6.17;;
78686;SDS011;68002;52.310;6.990;2023-03-09T08:14:24;10.23;;;5.27;;
78686;SDS011;68002;52.310;6.990;2023-03-09T08:16:49;14.00;;;6.17;;
78686;SDS011;68002;52.310;6.990;2023-03-09T08:19:14;10.33;;;5.77;;
78686;SDS011;68002;52.310;6.990;2023-03-09T08:21:39;10.20;;;5.27;;
78686;SDS011;68002;52.310;6.990;2023-03-09T08:24:05;13.40;;;7.03;;
78686;SDS011;68002;52.310;6.990;2023-03-09T08:26:30;16.58;;;7.75;;
78686;SDS011;68002;52.310;6.990;2023-03-09T08:28:55;11.60;;;5.73;;
78686;SDS011;68002;52.310;6.990;2023-03-09T08:31:20;16.13;;;7.77;;
78686;SDS011;68002;52.310;6.990;2023-03-09T08:33:46;12.10;;;6.03;;
78686;SDS011;68002;52.310;6.990;2023-03-09T08:36:15;12.40;;;5.63;;
78686;SDS011;68002;52.310;6.990;2023-03-09T08:38:42;13.40;;;6.70;;
78686;SDS011;68002;52.310;6.990;2023-03-09T08:41:09;14.23;;;6.05;;
78686;SDS011;68002;52.310;6.990;2023-03-09T08:43:34;10.52;;;5.47;;
78686;SDS011;68002;52.310;6.990;2023-03-09T08:46:02;13.53;;;6.63;;
78686;SDS011;68002;52.310;6.990;2023-03-09T08:48:27;12.10;;;5.68;;
78686;SDS011;68002;52.310;6.990;2023-03-09T08:50:52;13.57;;;7.07;;
78686;SDS011;68002;52.310;6.990;2023-03-09T08:53:18;13.40;;;7.20;;
78686;SDS011;68002;52.310;6.990;2023-03-09T08:55:43;12.83;;;6.57;;
78686;SDS011;68002;52.310;6.990;2023-03-09T08:58:08;13.75;;;7.32;;
78686;SDS011;68002;52.310;6.990;2023-03-09T09:03:38;13.73;;;6.13;;
78686;SDS011;68002;52.310;6.990;2023-03-09T09:06:14;13.77;;;7.03;;
78686;SDS011;68002;52.310;6.990;2023-03-09T09:08:40;12.32;;;6.13;;
78686;SDS011;68002;52.310;6.990;2023-03-09T09:11:10;13.00;;;6.90;;
78686;SDS011;68002;52.310;6.990;2023-03-09T09:13:37;12.73;;;6.43;;
78686;SDS011;68002;52.310;6.990;2023-03-09T09:16:03;16.10;;;7.57;;
78686;SDS011;68002;52.310;6.990;2023-03-09T09:18:29;12.68;;;6.40;;
78686;SDS011;68002;52.310;6.990;2023-03-09T09:20:55;15.47;;;8.37;;
78686;SDS011;68002;52.310;6.990;2023-03-09T09:23:20;13.57;;;7.13;;
78686;SDS011;68002;52.310;6.990;2023-03-09T09:25:45;15.17;;;7.13;;
78686;SDS011;68002;52.310;6.990;2023-03-09T09:28:18;15.57;;;7.82;;
78686;SDS011;68002;52.310;6.990;2023-03-09T09:30:43;13.10;;;6.97;;
78686;SDS011;68002;52.310;6.990;2023-03-09T09:33:08;14.83;;;6.13;;
78686;SDS011;68002;52.310;6.990;2023-03-09T09:35:34;11.30;;;5.13;;
78686;SDS011;68002;52.310;6.990;2023-03-09T09:37:59;15.27;;;7.10;;
78686;SDS011;68002;52.310;6.990;2023-03-09T09:40:24;14.87;;;7.47;;
78686;SDS011;68002;52.310;6.990;2023-03-09T09:42:50;10.50;;;5.90;;
78686;SDS011;68002;52.310;6.990;2023-03-09T09:45:24;13.23;;;6.53;;
78686;SDS011;68002;52.310;6.990;2023-03-09T09:47:53;11.30;;;6.28;;
78686;SDS011;68002;52.310;6.990;2023-03-09T09:50:21;14.82;;;7.18;;
78686;SDS011;68002;52.310;6.990;2023-03-09T09:52:53;13.07;;;6.00;;
78686;SDS011;68002;52.310;6.990;2023-03-09T09:55:41;15.07;;;7.63;;
78686;SDS011;68002;52.310;6.990;2023-03-09T09:58:11;15.27;;;7.13;;
78686;SDS011;68002;52.310;6.990;2023-03-09T10:00:50;13.63;;;6.93;;
78686;SDS011;68002;52.310;6.990;2023-03-09T10:08:22;12.30;;;4.93;;
78686;SDS011;68002;52.310;6.990;2023-03-09T10:10:52;15.70;;;6.82;;
78686;SDS011;68002;52.310;6.990;2023-03-09T10:13:28;11.13;;;6.47;;
78686;SDS011;68002;52.310;6.990;2023-03-09T10:15:58;13.25;;;6.75;;
78686;SDS011;68002;52.310;6.990;2023-03-09T10:18:30;16.40;;;6.90;;
78686;SDS011;68002;52.310;6.990;2023-03-09T10:20:59;15.50;;;6.85;;
78686;SDS011;68002;52.310;6.990;2023-03-09T10:23:27;16.00;;;7.20;;
78686;SDS011;68002;52.310;6.990;2023-03-09T10:25:57;13.15;;;6.97;;
78686;SDS011;68002;52.310;6.990;2023-03-09T10:28:41;14.13;;;7.75;;
78686;SDS011;68002;52.310;6.990;2023-03-09T10:31:14;13.63;;;5.80;;
78686;SDS011;68002;52.310;6.990;2023-03-09T10:33:44;13.70;;;6.50;;
78686;SDS011;68002;52.310;6.990;2023-03-09T10:38:48;12.73;;;6.57;;
78686;SDS011;68002;52.310;6.990;2023-03-09T10:41:15;10.55;;;5.38;;
78686;SDS011;68002;52.310;6.990;2023-03-09T10:43:43;12.90;;;6.22;;
78686;SDS011;68002;52.310;6.990;2023-03-09T10:46:13;13.82;;;6.57;;
78686;SDS011;68002;52.310;6.990;2023-03-09T10:48:41;12.73;;;6.57;;
78686;SDS011;68002;52.310;6.990;2023-03-09T10:53:49;14.57;;;6.50;;
78686;SDS011;68002;52.310;6.990;2023-03-09T10:56:16;10.83;;;4.73;;
78686;SDS011;68002;52.310;6.990;2023-03-09T10:58:46;14.70;;;7.47;;
78686;SDS011;68002;52.310;6.990;2023-03-09T11:01:31;11.23;;;5.07;;
78686;SDS011;68002;52.310;6.990;2023-03-09T11:03:58;15.32;;;8.05;;
78686;SDS011;68002;52.310;6.990;2023-03-09T11:06:27;16.53;;;7.70;;
78686;SDS011;68002;52.310;6.990;2023-03-09T11:09:21;13.88;;;7.03;;
78686;SDS011;68002;52.310;6.990;2023-03-09T11:11:50;14.35;;;6.50;;
78686;SDS011;68002;52.310;6.990;2023-03-09T11:16:55;13.13;;;6.55;;
78686;SDS011;68002;52.310;6.990;2023-03-09T11:19:22;15.70;;;7.15;;
78686;SDS011;68002;52.310;6.990;2023-03-09T11:24:59;12.35;;;6.05;;
78686;SDS011;68002;52.310;6.990;2023-03-09T11:27:25;16.13;;;8.02;;
78686;SDS011;68002;52.310;6.990;2023-03-09T11:29:57;12.48;;;5.75;;
78686;SDS011;68002;52.310;6.990;2023-03-09T11:32:31;10.57;;;5.13;;
78686;SDS011;68002;52.310;6.990;2023-03-09T11:34:56;13.43;;;6.60;;
78686;SDS011;68002;52.310;6.990;2023-03-09T11:40:14;15.43;;;6.93;;
78686;SDS011;68002;52.310;6.990;2023-03-09T11:42:48;13.43;;;7.13;;
78686;SDS011;68002;52.310;6.990;2023-03-09T11:45:21;15.00;;;6.97;;
78686;SDS011;68002;52.310;6.990;2023-03-09T11:47:59;15.60;;;7.28;;
78686;SDS011;68002;52.310;6.990;2023-03-09T11:50:41;12.88;;;6.75;;
78686;SDS011;68002;52.310;6.990;2023-03-09T11:53:20;16.20;;;7.82;;
78686;SDS011;68002;52.310;6.990;2023-03-09T11:55:50;13.98;;;6.38;;
78686;SDS011;68002;52.310;6.990;2023-03-09T11:58:21;12.85;;;7.00;;
78686;SDS011;68002;52.310;6.990;2023-03-09T12:00:52;14.32;;;7.10;;
78686;SDS011;68002;52.310;6.990;2023-03-09T12:03:36;14.65;;;7.00;;
78686;SDS011;68002;52.310;6.990;2023-03-09T12:06:19;15.68;;;7.55;;
78686;SDS011;68002;52.310;6.990;2023-03-09T12:08:50;12.43;;;5.82;;
78686;SDS011;68002;52.310;6.990;2023-03-09T12:11:41;18.45;;;7.82;;
78686;SDS011;68002;52.310;6.990;2023-03-09T12:14:22;15.77;;;6.88;;
78686;SDS011;68002;52.310;6.990;2023-03-09T12:16:54;17.00;;;6.47;;
78686;SDS011;68002;52.310;6.990;2023-03-09T12:22:05;13.73;;;6.82;;
78686;SDS011;68002;52.310;6.990;2023-03-09T12:24:38;15.93;;;6.45;;
78686;SDS011;68002;52.310;6.990;2023-03-09T12:29:43;14.40;;;6.45;;
78686;SDS011;68002;52.310;6.990;2023-03-09T12:34:43;11.25;;;5.55;;
78686;SDS011;68002;52.310;6.990;2023-03-09T12:45:37;15.52;;;6.75;;
78686;SDS011;68002;52.310;6.990;2023-03-09T12:48:45;13.00;;;6.40;;
78686;SDS011;68002;52.310;6.990;2023-03-09T12:51:08;12.25;;;6.50;;
78686;SDS011;68002;52.310;6.990;2023-03-09T12:53:58;14.88;;;6.63;;
78686;SDS011;68002;52.310;6.990;2023-03-09T12:56:25;15.25;;;7.25;;
78686;SDS011;68002;52.310;6.990;2023-03-09T12:58:51;16.60;;;7.95;;
78686;SDS011;68002;52.310;6.990;2023-03-09T13:08:49;18.90;;;8.55;;
78686;SDS011;68002;52.310;6.990;2023-03-09T13:24:24;16.30;;;9.30;;
78686;SDS011;68002;52.310;6.990;2023-03-09T13:26:56;12.27;;;6.05;;
78686;SDS011;68002;52.310;6.990;2023-03-09T13:29:23;16.95;;;6.82;;
78686;SDS011;68002;52.310;6.990;2023-03-09T13:31:51;15.73;;;7.10;;
78686;SDS011;68002;52.310;6.990;2023-03-09T13:34:27;12.40;;;6.25;;
78686;SDS011;68002;52.310;6.990;2023-03-09T13:36:58;18.65;;;8.32;;
78686;SDS011;68002;52.310;6.990;2023-03-09T13:39:28;14.60;;;5.95;;
78686;SDS011;68002;52.310;6.990;2023-03-09T13:41:54;14.50;;;7.22;;
78686;SDS011;68002;52.310;6.990;2023-03-09T13:44:22;15.02;;;7.35;;
78686;SDS011;68002;52.310;6.990;2023-03-09T13:46:50;15.05;;;6.93;;
78686;SDS011;68002;52.310;6.990;2023-03-09T13:49:26;18.98;;;8.80;;
78686;SDS011;68002;52.310;6.990;2023-03-09T13:51:58;11.90;;;5.78;;
78686;SDS011;68002;52.310;6.990;2023-03-09T13:54:29;18.70;;;8.75;;
78686;SDS011;68002;52.310;6.990;2023-03-09T13:57:10;17.23;;;9.63;;
78686;SDS011;68002;52.310;6.990;2023-03-09T13:59:53;11.75;;;5.70;;
78686;SDS011;68002;52.310;6.990;2023-03-09T14:02:19;18.90;;;8.68;;
78686;SDS011;68002;52.310;6.990;2023-03-09T14:04:45;14.23;;;5.43;;
78686;SDS011;68002;52.310;6.990;2023-03-09T14:07:41;20.35;;;8.90;;
78686;SDS011;68002;52.310;6.990;2023-03-09T14:12:44;16.35;;;7.13;;
78686;SDS011;68002;52.310;6.990;2023-03-09T14:15:15;18.45;;;7.97;;
78686;SDS011;68002;52.310;6.990;2023-03-09T14:17:43;17.42;;;8.00;;
78686;SDS011;68002;52.310;6.990;2023-03-09T14:20:16;19.77;;;9.02;;
78686;SDS011;68002;52.310;6.990;2023-03-09T14:22:44;19.13;;;9.40;;
78686;SDS011;68002;52.310;6.990;2023-03-09T14:27:50;22.33;;;10.93;;
78686;SDS011;68002;52.310;6.990;2023-03-09T14:35:23;18.10;;;8.90;;
78686;SDS011;68002;52.310;6.990;2023-03-09T14:37:54;24.30;;;9.45;;
78686;SDS011;68002;52.310;6.990;2023-03-09T14:40:23;19.83;;;8.23;;
78686;SDS011;68002;52.310;6.990;2023-03-09T14:42:50;21.95;;;9.68;;
78686;SDS011;68002;52.310;6.990;2023-03-09T14:45:20;23.37;;;10.07;;
78686;SDS011;68002;52.310;6.990;2023-03-09T14:47:50;21.40;;;11.13;;
78686;SDS011;68002;52.310;6.990;2023-03-09T14:50:16;16.73;;;7.68;;
78686;SDS011;68002;52.310;6.990;2023-03-09T14:52:42;12.65;;;6.18;;
78686;SDS011;68002;52.310;6.990;2023-03-09T14:55:26;18.58;;;8.88;;
78686;SDS011;68002;52.310;6.990;2023-03-09T14:57:51;13.82;;;5.97;;
78686;SDS011;68002;52.310;6.990;2023-03-09T15:00:20;13.80;;;6.10;;
78686;SDS011;68002;52.310;6.990;2023-03-09T15:02:48;17.08;;;7.70;;
78686;SDS011;68002;52.310;6.990;2023-03-09T15:05:15;15.60;;;6.70;;
78686;SDS011;68002;52.310;6.990;2023-03-09T15:07:45;18.95;;;7.60;;
78686;SDS011;68002;52.310;6.990;2023-03-09T15:10:11;16.38;;;7.53;;
78686;SDS011;68002;52.310;6.990;2023-03-09T15:12:37;20.15;;;9.27;;
78686;SDS011;68002;52.310;6.990;2023-03-09T15:15:04;16.90;;;7.13;;
78686;SDS011;68002;52.310;6.990;2023-03-09T15:17:35;17.30;;;8.68;;
78686;SDS011;68002;52.310;6.990;2023-03-09T15:20:01;16.70;;;8.17;;
78686;SDS011;68002;52.310;6.990;2023-03-09T15:22:26;15.40;;;7.90;;
78686;SDS011;68002;52.310;6.990;2023-03-09T15:24:51;16.43;;;7.63;;
78686;SDS011;68002;52.310;6.990;2023-03-09T15:27:16;16.87;;;7.73;;
78686;SDS011;68002;52.310;6.990;2023-03-09T15:29:41;20.93;;;11.27;;
78686;SDS011;68002;52.310;6.990;2023-03-09T15:32:07;18.73;;;8.30;;
78686;SDS011;68002;52.310;6.990;2023-03-09T15:34:33;14.40;;;6.82;;
78686;SDS011;68002;52.310;6.990;2023-03-09T15:37:00;19.20;;;7.68;;
78686;SDS011;68002;52.310;6.990;2023-03-09T15:39:26;15.20;;;6.97;;
78686;SDS011;68002;52.310;6.990;2023-03-09T15:41:51;15.63;;;7.57;;
78686;SDS011;68002;52.310;6.990;2023-03-09T15:44:16;22.90;;;10.40;;
78686;SDS011;68002;52.310;6.990;2023-03-09T15:46:41;22.73;;;10.10;;
78686;SDS011;68002;52.310;6.990;2023-03-09T15:49:07;19.07;;;7.87;;
78686;SDS011;68002;52.310;6.990;2023-03-09T15:51:32;21.42;;;8.98;;
78686;SDS011;68002;52.310;6.990;2023-03-09T15:53:58;24.60;;;10.45;;